This is the latest recevied weather packets stored in our database for station/object KO4LCK. If no packets are shown the sender has not sent any weather packets the latest 10 day(s).
| Time | Temp. | Humidity | Pressure | Rain* | Wind** | Luminosity | Snow |
|---|---|---|---|---|---|---|---|
| 1777379056 | 14.44° C | 93% | 1023.4 hPa | 4.83 mm | - | 3 W/m² | - |
| 1777378750 | 15° C | 93% | 1023.1 hPa | 4.32 mm | - | 5 W/m² | - |
| 1777378447 | 15° C | 93% | 1023.2 hPa | 3.05 mm | - | 4 W/m² | - |
| 1777378143 | 14.44° C | 93% | 1023.1 hPa | 3.05 mm | - | 4 W/m² | - |
| 1777377841 | 14.44° C | 93% | 1022.9 hPa | 4.32 mm | - | 3 W/m² | - |
| 1777377540 | 14.44° C | 92% | 1022.5 hPa | 6.1 mm | - | 3 W/m² | - |
| 1777377235 | 15° C | 92% | 1022.6 hPa | 7.87 mm | - | 2 W/m² | - |
| 1777376934 | 15° C | 92% | 1023.2 hPa | 9.65 mm | - | 2 W/m² | - |
| 1777376630 | 15° C | 91% | 1023.3 hPa | 8.89 mm | - | 1 W/m² | - |
| 1777376328 | 15° C | 89% | 1023 hPa | 18.03 mm | - | 1 W/m² | - |
| 1777376022 | 15° C | 87% | 1023.8 hPa | 16.76 mm | - | 2 W/m² | - |
| 1777375722 | 15.56° C | 85% | 1023.6 hPa | 15.49 mm | - | 1 W/m² | - |
| 1777375417 | 16.67° C | 80% | 1023.5 hPa | 10.67 mm | - | 1 W/m² | - |
| 1777375115 | 17.78° C | 72% | 1023.7 hPa | 1.78 mm | - | 0 W/m² | - |
| 1777374814 | 17.78° C | 69% | 1023.6 hPa | 0 mm | - | 0 W/m² | - |
| 1777374510 | 17.22° C | 71% | 1023.4 hPa | 0 mm | - | 0 W/m² | - |
| 1777374208 | 16.67° C | 74% | 1023.4 hPa | 0 mm | - | 0 W/m² | - |
| 1777373903 | 16.67° C | 75% | 1022.6 hPa | 0 mm | - | 0 W/m² | - |
| 1777373601 | 16.67° C | 73% | 1020.5 hPa | 0 mm | - | 0 W/m² | - |
| 1777373297 | 16.67° C | 73% | 1019.9 hPa | 0 mm | - | 0 W/m² | - |
| 1777372992 | 16.67° C | 73% | 1019.7 hPa | 0 mm | - | 0 W/m² | - |
| 1777372688 | 16.67° C | 73% | 1019.2 hPa | 0 mm | - | 0 W/m² | - |
| 1777372387 | 17.22° C | 72% | 1018.7 hPa | 0 mm | - | 0 W/m² | - |
| 1777372086 | 17.22° C | 72% | 1019 hPa | 0 mm | - | 0 W/m² | - |
| 1777371781 | 17.22° C | 72% | 1018.8 hPa | 0 mm | - | 0 W/m² | - |
* Rain latest hour (hover to see other rain measurements)
** Current wind speed in m/s (hover to see current wind gust speed)